Time;durP1;ratioP1;P1;durP2;ratioP2;P2;SDS_P1;SDS_P2;PMS_P1;PMS_P2;Temp;Humidity;BMP_temperature;BMP_pressure;BME280_temperature;BME280_humidity;BME280_pressure;Samples;Min_cycle;Max_cycle;Signal;HPM_P1;HPM_P2
2021/03/18 00:00:55;;;;;;;8.60;5.67;;;2.20;99.90;;;;;;5032343;28;20460;-67
2021/03/18 00:03:29;;;;;;;12.30;6.50;;;2.10;99.90;;;;;;5032858;28;20261;-67
2021/03/18 00:05:55;;;;;;;8.17;5.67;;;2.10;99.90;;;;;;5015951;28;20433;-68
2021/03/18 00:08:22;;;;;;;7.97;6.00;;;2.10;99.90;;;;;;5021517;28;20453;-68
2021/03/18 00:10:49;;;;;;;9.40;7.00;;;2.20;99.90;;;;;;5028521;28;20433;-67
2021/03/18 00:13:15;;;;;;;14.00;7.43;;;2.20;99.90;;;;;;5027559;28;20527;-67
2021/03/18 00:15:42;;;;;;;7.50;6.30;;;2.10;99.90;;;;;;5031577;28;20515;-68
2021/03/18 00:18:09;;;;;;;7.93;6.50;;;2.10;99.90;;;;;;5030830;28;20190;-67
2021/03/18 00:20:35;;;;;;;7.83;6.10;;;2.10;99.90;;;;;;5023211;28;20554;-67
2021/03/18 00:23:01;;;;;;;6.90;5.97;;;2.10;99.90;;;;;;5030820;28;20487;-70
2021/03/18 00:25:27;;;;;;;7.70;5.80;;;2.10;99.90;;;;;;5025234;28;20426;-67
2021/03/18 00:27:53;;;;;;;7.77;5.80;;;2.10;99.90;;;;;;5017925;28;20448;-68
2021/03/18 00:30:20;;;;;;;7.00;6.30;;;2.10;99.90;;;;;;5022155;28;20183;-68
2021/03/18 00:32:47;;;;;;;10.73;6.57;;;2.20;99.90;;;;;;5026171;28;20519;-68
2021/03/18 00:35:14;;;;;;;6.40;5.37;;;2.20;99.90;;;;;;5026671;28;20437;-68
2021/03/18 00:37:42;;;;;;;6.53;4.97;;;2.20;99.90;;;;;;5028571;28;20457;-68
2021/03/18 00:40:29;;;;;;;5.93;5.30;;;2.20;99.90;;;;;;5021224;28;20457;-68
2021/03/18 00:43:04;;;;;;;8.27;6.60;;;2.20;99.90;;;;;;5029813;28;20839;-68
2021/03/18 00:45:32;;;;;;;6.17;5.60;;;2.20;99.90;;;;;;5026559;28;20428;-68
2021/03/18 00:47:58;;;;;;;10.73;8.90;;;2.20;99.90;;;;;;5032256;28;20460;-68
2021/03/18 00:50:38;;;;;;;13.43;9.30;;;2.20;99.90;;;;;;5031966;28;20440;-68
2021/03/18 00:53:05;;;;;;;8.00;7.20;;;2.20;99.90;;;;;;5030843;28;20807;-68
2021/03/18 00:55:31;;;;;;;8.47;7.67;;;2.20;99.90;;;;;;5016681;28;20449;-68
2021/03/18 00:57:57;;;;;;;8.73;7.83;;;2.20;99.90;;;;;;5019245;28;20453;-68
2021/03/18 01:00:36;;;;;;;7.57;6.73;;;2.20;99.90;;;;;;5029996;28;20202;-68
2021/03/18 01:03:02;;;;;;;7.87;7.07;;;2.10;99.90;;;;;;5025759;28;20240;-68
2021/03/18 01:05:36;;;;;;;8.70;7.90;;;2.10;99.90;;;;;;5030832;28;20425;-68
2021/03/18 01:08:02;;;;;;;8.43;7.63;;;2.10;99.90;;;;;;5017421;28;20205;-68
2021/03/18 01:10:29;;;;;;;8.60;7.80;;;2.10;99.90;;;;;;5025945;28;20930;-68
2021/03/18 01:12:55;;;;;;;10.73;7.70;;;2.10;99.90;;;;;;5024125;28;20441;-68
2021/03/18 01:15:24;;;;;;;8.07;7.10;;;2.10;99.90;;;;;;5026924;28;20428;-69
2021/03/18 01:17:50;;;;;;;12.10;7.00;;;2.10;99.90;;;;;;5016118;28;20191;-69
2021/03/18 01:20:16;;;;;;;7.83;6.93;;;2.10;99.90;;;;;;5029217;28;20475;-68
2021/03/18 01:22:41;;;;;;;9.07;7.00;;;2.00;99.90;;;;;;5024122;28;20588;-68
2021/03/18 01:25:08;;;;;;;7.03;5.70;;;2.00;99.90;;;;;;5027605;28;20995;-69
2021/03/18 01:27:34;;;;;;;7.90;5.67;;;2.00;99.90;;;;;;5031752;28;20197;-68
2021/03/18 01:30:00;;;;;;;5.27;4.77;;;2.10;99.90;;;;;;5030784;28;20949;-68
2021/03/18 01:32:25;;;;;;;6.40;5.50;;;2.10;99.90;;;;;;5030973;28;20436;-68
2021/03/18 01:34:51;;;;;;;9.27;5.80;;;2.00;99.90;;;;;;5031170;28;20694;-68
2021/03/18 01:37:16;;;;;;;9.47;5.20;;;2.10;99.90;;;;;;5013180;28;20671;-68
2021/03/18 01:39:42;;;;;;;7.37;6.13;;;2.20;99.90;;;;;;5019764;28;20205;-68
2021/03/18 01:42:08;;;;;;;5.83;5.23;;;2.20;99.90;;;;;;5028855;28;20189;-68
2021/03/18 01:44:33;;;;;;;6.00;4.70;;;2.20;99.90;;;;;;5018668;28;20220;-68
2021/03/18 01:46:59;;;;;;;6.23;5.10;;;2.30;99.90;;;;;;5028945;28;20644;-68
2021/03/18 01:49:24;;;;;;;5.03;4.33;;;2.30;99.90;;;;;;5023248;28;20567;-68
2021/03/18 01:51:50;;;;;;;4.50;4.10;;;2.30;99.90;;;;;;5026511;28;20312;-68
2021/03/18 01:54:17;;;;;;;6.13;5.53;;;2.20;99.90;;;;;;5030186;28;20178;-68
2021/03/18 01:56:42;;;;;;;4.33;3.93;;;2.20;99.90;;;;;;5030401;28;20209;-68
2021/03/18 01:59:08;;;;;;;7.50;4.50;;;2.20;99.90;;;;;;5030804;28;20476;-68
2021/03/18 02:01:33;;;;;;;6.67;5.07;;;2.20;99.90;;;;;;5029621;28;20702;-68
2021/03/18 02:04:01;;;;;;;6.23;5.00;;;2.20;99.90;;;;;;5023894;28;20199;-68
2021/03/18 02:06:27;;;;;;;6.03;5.43;;;2.20;99.90;;;;;;5011301;28;20166;-68
2021/03/18 02:08:53;;;;;;;11.17;5.30;;;2.20;99.90;;;;;;5027783;28;20453;-68
2021/03/18 02:11:18;;;;;;;5.87;4.93;;;2.20;99.90;;;;;;5014912;28;20978;-68
2021/03/18 02:13:44;;;;;;;7.23;4.57;;;2.20;99.90;;;;;;5016111;28;20177;-68
2021/03/18 02:16:12;;;;;;;6.10;4.50;;;2.10;99.90;;;;;;5030804;28;20541;-68
2021/03/18 02:18:52;;;;;;;7.43;5.43;;;2.10;99.90;;;;;;5015074;28;20567;-68
2021/03/18 02:21:36;;;;;;;7.03;4.30;;;2.10;99.90;;;;;;5030248;28;20876;-68
2021/03/18 02:24:17;;;;;;;5.77;4.90;;;2.20;99.90;;;;;;5023856;28;20417;-68
2021/03/18 02:27:09;;;;;;;5.20;4.70;;;2.20;99.90;;;;;;5018236;28;20451;-68
2021/03/18 02:30:10;;;;;;;5.60;3.70;;;2.20;99.90;;;;;;5023157;28;20503;-68
2021/03/18 02:32:48;;;;;;;5.83;5.10;;;2.10;99.90;;;;;;5028738;28;20470;-68
2021/03/18 02:35:36;;;;;;;5.97;4.40;;;2.10;99.90;;;;;;5028800;28;20942;-68
2021/03/18 02:38:04;;;;;;;6.90;4.83;;;2.20;99.90;;;;;;5023275;28;20450;-68
2021/03/18 02:40:33;;;;;;;9.47;5.27;;;2.10;99.90;;;;;;5017802;28;20464;-68
2021/03/18 02:43:03;;;;;;;7.23;5.13;;;2.20;99.90;;;;;;5027762;28;20424;-68
2021/03/18 02:45:33;;;;;;;5.70;4.73;;;2.20;99.90;;;;;;5028618;28;20964;-68
2021/03/18 02:48:01;;;;;;;4.60;4.10;;;2.20;99.90;;;;;;5029315;28;21008;-68
2021/03/18 02:50:29;;;;;;;4.50;3.80;;;2.20;99.90;;;;;;5026868;28;20432;-68
2021/03/18 02:52:56;;;;;;;6.23;4.70;;;2.10;99.90;;;;;;5021219;28;20441;-68
2021/03/18 02:55:23;;;;;;;9.23;5.07;;;2.10;99.90;;;;;;5026803;28;20443;-68
2021/03/18 02:57:52;;;;;;;5.60;5.10;;;2.20;99.90;;;;;;5028376;28;20480;-68
2021/03/18 03:00:19;;;;;;;12.33;5.37;;;2.20;99.90;;;;;;5029650;28;20464;-68
2021/03/18 03:02:46;;;;;;;8.07;5.40;;;2.20;99.90;;;;;;5024234;28;20437;-68
2021/03/18 03:05:14;;;;;;;4.53;4.23;;;2.20;99.90;;;;;;5025370;28;20429;-68
2021/03/18 03:07:44;;;;;;;5.10;4.60;;;2.20;99.90;;;;;;5024268;28;20448;-68
2021/03/18 03:10:11;;;;;;;7.43;4.30;;;2.20;99.90;;;;;;5021051;28;20429;-68
2021/03/18 03:12:38;;;;;;;4.37;4.07;;;2.20;99.90;;;;;;5029621;28;20594;-68
2021/03/18 03:15:06;;;;;;;9.37;5.40;;;2.20;99.90;;;;;;5025849;28;20791;-68
2021/03/18 03:17:32;;;;;;;5.83;5.03;;;2.20;99.90;;;;;;5024855;28;21023;-68
2021/03/18 03:19:59;;;;;;;5.23;4.73;;;2.30;99.90;;;;;;5028673;28;20492;-68
2021/03/18 03:22:25;;;;;;;6.70;5.20;;;2.30;99.90;;;;;;5030228;28;20819;-68
2021/03/18 03:24:52;;;;;;;6.93;6.33;;;2.30;99.90;;;;;;5028967;28;20471;-68
2021/03/18 03:27:18;;;;;;;4.50;4.10;;;2.30;99.90;;;;;;5025735;28;21023;-69
2021/03/18 03:29:45;;;;;;;5.40;4.90;;;2.20;99.90;;;;;;5025225;28;20465;-68
2021/03/18 03:32:12;;;;;;;6.20;4.63;;;2.20;99.90;;;;;;5030277;28;20178;-69
2021/03/18 03:34:39;;;;;;;5.80;5.30;;;2.10;99.90;;;;;;5029159;28;20504;-68
2021/03/18 03:37:06;;;;;;;5.87;5.33;;;2.10;99.90;;;;;;5027827;28;20442;-68
2021/03/18 03:39:36;;;;;;;6.13;4.90;;;2.10;99.90;;;;;;5029822;28;20825;-68
2021/03/18 03:42:05;;;;;;;6.10;5.50;;;2.20;99.90;;;;;;5021752;28;20467;-68
2021/03/18 03:44:31;;;;;;;6.07;4.13;;;2.20;99.90;;;;;;5032253;28;20440;-68
2021/03/18 03:46:57;;;;;;;6.07;4.40;;;2.20;99.90;;;;;;5031577;28;20444;-68
2021/03/18 03:49:23;;;;;;;6.03;5.30;;;2.20;99.90;;;;;;5033406;28;20448;-68
2021/03/18 03:51:51;;;;;;;9.57;5.00;;;2.20;99.90;;;;;;5022389;28;20593;-68
2021/03/18 03:54:20;;;;;;;6.23;5.07;;;2.40;99.90;;;;;;5028140;28;20534;-71
2021/03/18 03:57:08;;;;;;;7.80;5.30;;;2.40;99.90;;;;;;5028217;28;20924;-68
2021/03/18 03:59:38;;;;;;;6.53;4.93;;;2.40;99.90;;;;;;5023789;28;20440;-68
2021/03/18 04:02:06;;;;;;;6.23;5.60;;;2.40;99.90;;;;;;5032748;28;20425;-68
2021/03/18 04:04:37;;;;;;;6.03;5.00;;;2.40;99.90;;;;;;5032453;28;20425;-68
2021/03/18 04:07:05;;;;;;;6.17;4.60;;;2.50;99.90;;;;;;5023506;28;20886;-68
2021/03/18 04:09:32;;;;;;;6.00;4.07;;;2.50;99.90;;;;;;5032609;28;20441;-68
2021/03/18 04:11:59;;;;;;;6.50;4.67;;;2.30;99.90;;;;;;5031603;28;20461;-68
2021/03/18 04:14:30;;;;;;;7.27;4.67;;;2.30;99.90;;;;;;5029173;28;20543;-68
2021/03/18 04:16:59;;;;;;;6.17;4.73;;;2.20;99.90;;;;;;5031829;28;20435;-68
2021/03/18 04:19:25;;;;;;;5.30;4.40;;;2.30;99.90;;;;;;5032025;28;20460;-69
2021/03/18 04:21:52;;;;;;;6.80;3.80;;;2.30;99.90;;;;;;5028479;28;20429;-68
2021/03/18 04:24:19;;;;;;;6.37;4.40;;;2.30;99.90;;;;;;5031128;28;20429;-69
2021/03/18 04:26:46;;;;;;;4.27;3.90;;;2.40;99.90;;;;;;5032305;28;20860;-69
2021/03/18 04:29:14;;;;;;;5.07;4.57;;;2.40;99.90;;;;;;5030895;28;20449;-69
2021/03/18 04:31:42;;;;;;;6.00;4.63;;;2.30;99.90;;;;;;5025579;28;20428;-68
2021/03/18 04:34:10;;;;;;;6.17;4.73;;;2.30;99.90;;;;;;5030157;28;20441;-68
2021/03/18 04:36:36;;;;;;;5.63;4.73;;;2.30;99.90;;;;;;5027708;28;20448;-69
2021/03/18 04:39:03;;;;;;;6.43;5.17;;;2.30;99.90;;;;;;5030357;28;20496;-68
2021/03/18 04:41:29;;;;;;;7.50;4.80;;;2.30;99.90;;;;;;5032146;28;20629;-68
2021/03/18 04:43:56;;;;;;;5.83;4.40;;;2.40;99.90;;;;;;5028008;28;20836;-68
2021/03/18 04:46:24;;;;;;;5.07;4.60;;;2.40;99.90;;;;;;5033570;28;20511;-68
2021/03/18 04:48:53;;;;;;;5.20;4.70;;;2.30;99.90;;;;;;5033584;28;20514;-68
2021/03/18 04:51:19;;;;;;;7.60;5.30;;;2.40;99.90;;;;;;5032280;28;20926;-68
2021/03/18 04:53:45;;;;;;;5.90;5.00;;;2.30;99.90;;;;;;5032723;28;20447;-68
2021/03/18 04:56:10;;;;;;;4.47;4.07;;;2.40;99.90;;;;;;5032028;28;20437;-68
2021/03/18 04:58:38;;;;;;;4.40;4.00;;;2.30;99.90;;;;;;5032046;28;20641;-68
2021/03/18 05:01:04;;;;;;;4.80;4.30;;;2.30;99.90;;;;;;5032004;28;20218;-68
2021/03/18 05:03:33;;;;;;;8.43;4.93;;;2.30;99.90;;;;;;5021297;28;20443;-68
2021/03/18 05:06:00;;;;;;;4.70;4.30;;;2.20;99.90;;;;;;5031019;28;20565;-68
2021/03/18 05:08:27;;;;;;;7.70;4.50;;;2.30;99.90;;;;;;5032161;28;20456;-68
2021/03/18 05:10:53;;;;;;;8.90;4.07;;;2.30;99.90;;;;;;5031136;28;21241;-68
2021/03/18 05:13:19;;;;;;;4.27;3.70;;;2.30;99.90;;;;;;5030394;28;20441;-70
2021/03/18 05:15:47;;;;;;;7.57;4.50;;;2.30;99.90;;;;;;5027761;28;20808;-68
2021/03/18 05:18:15;;;;;;;10.47;5.87;;;2.30;99.90;;;;;;5030901;28;20452;-68
2021/03/18 05:20:42;;;;;;;4.87;3.80;;;2.30;99.90;;;;;;5027655;28;20467;-70
2021/03/18 05:23:10;;;;;;;5.70;4.53;;;2.40;99.90;;;;;;5030852;28;20436;-69
2021/03/18 05:25:37;;;;;;;5.80;4.50;;;2.40;99.90;;;;;;5017007;28;20926;-68
2021/03/18 05:28:04;;;;;;;5.30;4.63;;;2.40;99.90;;;;;;5030954;28;20459;-68
2021/03/18 05:30:31;;;;;;;6.00;4.40;;;2.40;99.90;;;;;;5031384;28;20432;-69
2021/03/18 05:32:58;;;;;;;5.10;3.70;;;2.40;99.90;;;;;;5031604;28;20499;-68
2021/03/18 05:35:24;;;;;;;4.50;3.70;;;2.40;99.90;;;;;;5030478;28;20572;-68
2021/03/18 05:37:50;;;;;;;4.30;3.90;;;2.40;99.90;;;;;;5031033;28;20462;-68
2021/03/18 05:40:16;;;;;;;12.33;4.60;;;2.30;99.90;;;;;;5031189;28;20210;-69
2021/03/18 05:42:42;;;;;;;7.43;5.00;;;2.40;99.90;;;;;;5030459;28;20248;-68
2021/03/18 05:45:11;;;;;;;4.53;4.07;;;2.30;99.90;;;;;;5026214;28;20438;-69
2021/03/18 05:47:37;;;;;;;4.50;3.97;;;2.30;99.90;;;;;;5029710;28;20472;-68
2021/03/18 05:50:06;;;;;;;5.50;4.93;;;2.30;99.90;;;;;;5026576;28;20799;-69
2021/03/18 05:52:33;;;;;;;6.60;5.40;;;2.30;99.90;;;;;;5029390;28;20437;-68
2021/03/18 05:55:00;;;;;;;6.20;5.60;;;2.30;99.90;;;;;;5025941;28;20490;-68
2021/03/18 05:57:26;;;;;;;7.53;4.93;;;2.40;99.90;;;;;;5043438;28;20804;-69
2021/03/18 05:59:53;;;;;;;8.00;5.27;;;2.40;99.90;;;;;;5045618;28;20530;-69
2021/03/18 06:02:19;;;;;;;7.03;5.80;;;2.40;99.90;;;;;;5031092;28;20962;-68
2021/03/18 06:04:46;;;;;;;8.43;5.47;;;2.40;99.90;;;;;;5030544;28;20474;-69
2021/03/18 06:07:12;;;;;;;7.53;5.00;;;2.40;99.90;;;;;;5031010;28;20428;-68
2021/03/18 06:09:38;;;;;;;6.60;5.00;;;2.40;99.90;;;;;;5030805;28;20958;-68
2021/03/18 06:12:05;;;;;;;6.30;5.30;;;2.40;99.90;;;;;;5031161;28;20185;-68
2021/03/18 06:14:31;;;;;;;6.83;5.20;;;2.50;99.90;;;;;;5030851;28;20178;-68
2021/03/18 06:16:58;;;;;;;6.33;5.20;;;2.50;99.90;;;;;;5030265;28;20930;-69
2021/03/18 06:19:24;;;;;;;7.20;5.10;;;2.40;99.90;;;;;;5030917;28;20437;-68
2021/03/18 06:21:57;;;;;;;6.63;6.07;;;2.40;99.90;;;;;;5030665;28;20447;-68
2021/03/18 06:24:29;;;;;;;6.93;5.50;;;2.50;99.90;;;;;;5030896;28;20507;-69
2021/03/18 06:26:56;;;;;;;6.30;5.70;;;2.40;99.90;;;;;;5030209;28;20424;-69
2021/03/18 06:29:35;;;;;;;8.60;6.00;;;2.40;99.90;;;;;;5030622;28;20472;-69
2021/03/18 06:32:19;;;;;;;6.23;5.60;;;2.50;99.90;;;;;;5030557;28;20427;-68
2021/03/18 06:34:54;;;;;;;8.73;5.90;;;2.50;99.90;;;;;;5014562;28;20423;-69
2021/03/18 06:37:42;;;;;;;7.40;5.10;;;2.60;99.90;;;;;;5030555;28;20452;-69
2021/03/18 06:40:24;;;;;;;5.50;5.00;;;2.70;99.90;;;;;;5036737;28;20462;-69
2021/03/18 06:42:54;;;;;;;10.57;5.30;;;2.90;99.90;;;;;;5036386;28;20436;-69
2021/03/18 06:45:20;;;;;;;7.00;5.07;;;2.90;99.90;;;;;;5035894;28;20433;-69
2021/03/18 06:47:52;;;;;;;7.00;5.00;;;3.00;99.90;;;;;;5035689;28;20824;-69
2021/03/18 06:50:22;;;;;;;9.87;5.47;;;3.00;99.90;;;;;;5036462;28;20437;-69
2021/03/18 06:52:48;;;;;;;7.00;5.90;;;3.10;99.90;;;;;;5030983;28;20853;-69
2021/03/18 06:55:33;;;;;;;6.50;5.93;;;3.40;99.90;;;;;;5039887;28;20432;-69
2021/03/18 06:58:18;;;;;;;7.10;6.07;;;3.70;99.90;;;;;;5033568;28;20566;-69
2021/03/18 07:00:49;;;;;;;8.60;6.93;;;4.10;99.90;;;;;;5036296;28;20796;-69
2021/03/18 07:03:30;;;;;;;12.10;7.07;;;4.40;99.90;;;;;;5031496;28;20453;-69
2021/03/18 07:06:23;;;;;;;5.90;5.30;;;4.70;99.90;;;;;;5043018;28;20439;-66
2021/03/18 07:09:10;;;;;;;9.00;4.50;;;4.90;99.90;;;;;;5026700;28;20452;-68
2021/03/18 07:11:38;;;;;;;6.60;5.47;;;5.00;99.90;;;;;;5030241;28;20439;-68
2021/03/18 07:14:05;;;;;;;5.60;5.10;;;5.00;99.90;;;;;;5029882;28;20479;-69
2021/03/18 07:16:46;;;;;;;8.83;5.57;;;5.30;99.90;;;;;;5030466;28;20490;-68
2021/03/18 07:19:32;;;;;;;6.70;5.37;;;5.40;99.90;;;;;;5032990;28;20538;-67
2021/03/18 07:21:59;;;;;;;6.60;5.20;;;5.30;99.90;;;;;;5026707;28;20449;-67
2021/03/18 07:24:38;;;;;;;7.07;6.17;;;5.10;99.90;;;;;;5023785;28;20432;-67
2021/03/18 07:27:22;;;;;;;12.57;5.90;;;5.10;99.90;;;;;;5013664;28;20451;-66
2021/03/18 07:29:50;;;;;;;15.53;5.63;;;5.20;99.90;;;;;;5012004;28;20432;-65
2021/03/18 07:32:16;;;;;;;8.17;5.33;;;5.20;99.90;;;;;;5034067;28;20436;-66
2021/03/18 07:34:43;;;;;;;7.60;6.50;;;5.30;99.90;;;;;;5033240;28;20432;-66
2021/03/18 07:37:10;;;;;;;8.63;7.13;;;5.50;99.90;;;;;;5030087;28;20437;-66
2021/03/18 07:39:40;;;;;;;10.10;7.27;;;5.70;99.90;;;;;;5039616;28;20838;-66
2021/03/18 07:42:08;;;;;;;6.63;6.03;;;5.80;99.90;;;;;;5041934;28;20841;-66
2021/03/18 07:44:37;;;;;;;7.17;6.43;;;5.90;99.90;;;;;;5042523;28;20523;-67
2021/03/18 07:47:04;;;;;;;8.10;6.07;;;5.90;99.90;;;;;;5030879;28;20944;-66
2021/03/18 07:49:37;;;;;;;8.73;6.43;;;5.80;99.90;;;;;;5040504;28;21106;-66
2021/03/18 07:52:05;;;;;;;6.80;6.10;;;5.50;99.90;;;;;;5036880;28;20436;-66
2021/03/18 07:54:32;;;;;;;6.30;5.80;;;5.40;99.90;;;;;;5029082;28;20441;-67
2021/03/18 07:56:58;;;;;;;9.40;6.40;;;5.50;99.90;;;;;;5027522;28;20771;-66
2021/03/18 07:59:32;;;;;;;8.40;6.30;;;5.50;99.90;;;;;;5027683;28;20478;-66
2021/03/18 08:02:19;;;;;;;10.33;6.67;;;5.50;99.90;;;;;;5032627;28;20441;-66
2021/03/18 08:04:50;;;;;;;10.90;8.47;;;5.50;99.90;;;;;;5031132;28;20439;-66
2021/03/18 08:07:37;;;;;;;7.53;6.10;;;5.50;99.90;;;;;;5032564;28;20417;-66
2021/03/18 08:10:26;;;;;;;8.30;6.60;;;5.60;99.90;;;;;;5033668;28;20980;-66
2021/03/18 08:12:57;;;;;;;6.63;5.90;;;6.00;99.90;;;;;;5019488;28;20445;-66
2021/03/18 08:15:43;;;;;;;9.20;6.43;;;6.50;99.90;;;;;;5026756;28;20433;-66
2021/03/18 08:18:12;;;;;;;9.33;6.70;;;7.00;99.90;;;;;;5027652;28;20498;-66
2021/03/18 08:20:37;;;;;;;8.43;6.90;;;7.30;99.90;;;;;;5016839;28;20463;-66
2021/03/18 08:23:22;;;;;;;7.10;5.83;;;7.60;99.90;;;;;;5032177;28;20421;-66
2021/03/18 08:25:48;;;;;;;12.50;7.30;;;8.00;99.90;;;;;;5013154;28;20171;-66
2021/03/18 08:28:34;;;;;;;7.43;6.63;;;8.30;99.90;;;;;;5014274;28;20442;-67
2021/03/18 08:30:59;;;;;;;7.03;6.10;;;8.40;99.90;;;;;;5016157;28;20455;-67
2021/03/18 08:33:33;;;;;;;9.30;7.13;;;8.90;99.90;;;;;;5032649;28;20417;-69
2021/03/18 08:36:25;;;;;;;8.60;7.10;;;8.80;99.90;;;;;;5030437;28;20552;-67
2021/03/18 08:38:53;;;;;;;10.00;7.13;;;8.80;99.90;;;;;;5032320;28;20814;-67
2021/03/18 08:41:28;;;;;;;8.00;7.20;;;8.80;99.90;;;;;;5031788;28;20460;-67
2021/03/18 08:44:17;;;;;;;8.27;7.47;;;8.40;99.90;;;;;;5013765;28;20942;-66
2021/03/18 08:46:43;;;;;;;8.03;6.90;;;7.50;99.90;;;;;;5027205;28;20474;-68
2021/03/18 08:49:29;;;;;;;8.07;7.00;;;7.10;99.90;;;;;;5026543;28;20453;-67
2021/03/18 08:52:00;;;;;;;9.97;6.97;;;7.00;99.90;;;;;;5021046;28;20193;-66
2021/03/18 08:54:41;;;;;;;7.90;6.50;;;7.00;99.90;;;;;;5031649;28;20440;-67
2021/03/18 08:57:08;;;;;;;7.23;6.17;;;7.40;99.90;;;;;;5025660;28;20432;-65
2021/03/18 08:59:34;;;;;;;7.90;7.17;;;7.90;99.90;;;;;;5028518;28;20460;-65
2021/03/18 09:02:08;;;;;;;10.00;7.30;;;8.10;99.90;;;;;;5026036;28;20429;-65
2021/03/18 09:04:38;;;;;;;7.07;6.37;;;8.20;99.90;;;;;;5031918;28;20433;-65
2021/03/18 09:07:08;;;;;;;7.30;6.60;;;8.30;99.90;;;;;;5032034;28;20433;-65
2021/03/18 09:09:35;;;;;;;9.63;7.57;;;9.40;99.90;;;;;;5031140;28;20456;-65
2021/03/18 09:12:04;;;;;;;11.13;7.60;;;10.20;99.90;;;;;;5032254;28;20512;-65
2021/03/18 09:14:30;;;;;;;8.00;7.20;;;11.90;99.90;;;;;;5030197;28;20429;-65
2021/03/18 09:17:10;;;;;;;11.80;6.90;;;13.00;95.60;;;;;;5025032;28;20425;-66
2021/03/18 09:19:44;;;;;;;9.40;7.57;;;12.20;95.10;;;;;;5021927;28;20190;-67
2021/03/18 09:22:14;;;;;;;9.23;7.70;;;11.20;96.50;;;;;;5030905;28;20820;-68
2021/03/18 09:24:42;;;;;;;9.93;7.17;;;10.50;97.40;;;;;;5031485;28;20436;-66
2021/03/18 09:27:10;;;;;;;8.43;6.90;;;10.30;99.20;;;;;;5031401;28;20429;-66
2021/03/18 09:29:37;;;;;;;7.77;6.27;;;10.00;99.00;;;;;;5031561;28;20453;-66
2021/03/18 09:32:05;;;;;;;7.67;6.87;;;10.10;99.10;;;;;;5031463;28;20429;-66
2021/03/18 09:34:34;;;;;;;6.20;5.70;;;10.70;98.90;;;;;;5028926;28;20444;-66
2021/03/18 09:37:00;;;;;;;10.70;7.13;;;9.90;98.80;;;;;;5031131;28;20477;-66
2021/03/18 09:39:26;;;;;;;8.00;7.20;;;10.10;98.70;;;;;;5030877;28;20828;-65
2021/03/18 09:41:52;;;;;;;8.20;7.33;;;9.90;99.70;;;;;;5031103;28;20457;-66
2021/03/18 09:44:21;;;;;;;8.67;6.40;;;9.60;99.90;;;;;;5031010;28;20185;-67
2021/03/18 09:46:50;;;;;;;6.83;6.33;;;9.50;99.90;;;;;;5030939;28;20805;-66
2021/03/18 09:49:25;;;;;;;8.37;7.53;;;9.20;99.90;;;;;;5031258;28;20976;-66
2021/03/18 09:51:53;;;;;;;7.00;6.30;;;8.80;99.90;;;;;;5029709;28;20929;-65
2021/03/18 09:54:25;;;;;;;9.53;7.30;;;8.50;99.90;;;;;;5031037;28;20532;-65
2021/03/18 09:56:51;;;;;;;9.07;6.80;;;8.10;99.90;;;;;;5030965;28;20429;-65
2021/03/18 09:59:20;;;;;;;12.80;6.47;;;7.90;99.90;;;;;;5031121;28;20525;-66
2021/03/18 10:01:46;;;;;;;10.90;6.60;;;7.80;99.90;;;;;;5031164;28;20464;-65
2021/03/18 10:04:14;;;;;;;7.97;5.90;;;7.80;99.90;;;;;;5030975;28;20429;-66
2021/03/18 10:06:47;;;;;;;6.60;6.00;;;7.40;99.90;;;;;;5030827;28;20185;-66
2021/03/18 10:09:15;;;;;;;6.67;6.10;;;7.40;99.90;;;;;;5030709;28;20444;-65
2021/03/18 10:11:43;;;;;;;9.70;6.70;;;7.20;99.90;;;;;;5031152;28;20428;-65
2021/03/18 10:14:09;;;;;;;5.77;5.23;;;7.20;99.90;;;;;;5030936;28;20425;-66
2021/03/18 10:16:37;;;;;;;9.83;6.87;;;7.20;99.90;;;;;;5030504;28;20437;-66
2021/03/18 10:19:05;;;;;;;7.20;6.33;;;7.30;99.90;;;;;;5018183;28;20479;-66
2021/03/18 10:21:31;;;;;;;6.43;5.83;;;7.40;99.90;;;;;;5030728;28;20543;-65
2021/03/18 10:23:57;;;;;;;10.70;5.57;;;7.30;99.90;;;;;;5017794;28;20421;-66
2021/03/18 10:26:24;;;;;;;7.27;5.73;;;7.30;99.90;;;;;;5030802;28;20436;-65
2021/03/18 10:29:01;;;;;;;7.00;5.90;;;7.50;99.90;;;;;;5030564;28;20555;-67
2021/03/18 10:31:27;;;;;;;7.43;5.70;;;7.60;99.90;;;;;;5030669;28;20464;-66
2021/03/18 10:33:53;;;;;;;8.13;5.70;;;7.60;99.90;;;;;;5030644;28;20498;-66
2021/03/18 10:36:41;;;;;;;5.93;4.83;;;7.80;99.90;;;;;;5030519;28;20440;-66
2021/03/18 10:39:10;;;;;;;13.07;6.20;;;8.20;99.90;;;;;;5030528;28;20467;-66
2021/03/18 10:41:52;;;;;;;6.93;5.37;;;8.30;99.90;;;;;;5030362;28;20496;-66
2021/03/18 10:44:21;;;;;;;8.10;7.20;;;8.50;99.90;;;;;;5030673;28;20459;-67
2021/03/18 10:46:48;;;;;;;6.83;6.17;;;8.80;99.90;;;;;;5030086;28;20460;-67
2021/03/18 10:49:15;;;;;;;7.07;6.37;;;8.60;99.90;;;;;;5030748;28;20468;-66
2021/03/18 10:51:52;;;;;;;6.57;5.97;;;8.80;99.90;;;;;;5031992;28;20432;-67
2021/03/18 10:54:22;;;;;;;9.63;8.17;;;9.30;99.90;;;;;;5034697;28;20413;-66
2021/03/18 10:56:51;;;;;;;7.30;6.47;;;9.70;99.90;;;;;;5034481;28;20434;-66
2021/03/18 10:59:21;;;;;;;7.47;6.50;;;10.60;99.90;;;;;;5034893;28;20487;-66
2021/03/18 11:01:48;;;;;;;8.43;7.27;;;10.50;99.90;;;;;;5034322;28;20494;-67
2021/03/18 11:04:14;;;;;;;7.53;6.70;;;10.10;99.90;;;;;;5034324;28;20428;-66
2021/03/18 11:06:50;;;;;;;7.63;6.50;;;10.20;99.70;;;;;;5034224;28;20824;-66
2021/03/18 11:09:17;;;;;;;8.17;6.00;;;10.20;98.90;;;;;;5034191;28;20506;-66
2021/03/18 11:12:03;;;;;;;8.23;6.27;;;10.20;98.10;;;;;;5034402;28;20945;-66
2021/03/18 11:14:30;;;;;;;7.53;6.73;;;9.80;99.00;;;;;;5033896;28;20439;-66
2021/03/18 11:17:07;;;;;;;6.37;5.87;;;9.70;99.70;;;;;;5034087;28;20460;-66
2021/03/18 11:19:33;;;;;;;6.00;5.47;;;9.30;99.60;;;;;;5034535;28;20573;-65
2021/03/18 11:22:03;;;;;;;7.83;5.90;;;9.20;99.80;;;;;;5033965;28;20556;-66
2021/03/18 11:24:29;;;;;;;5.23;4.57;;;9.40;99.70;;;;;;5033808;28;20958;-66
2021/03/18 11:27:01;;;;;;;8.87;4.87;;;9.50;96.10;;;;;;5033722;28;20433;-65
2021/03/18 11:29:36;;;;;;;6.97;6.03;;;9.70;96.10;;;;;;5033667;28;20785;-66
2021/03/18 11:32:05;;;;;;;7.83;4.30;;;9.90;94.00;;;;;;5020355;28;20424;-67
2021/03/18 11:34:33;;;;;;;10.73;5.13;;;9.90;96.40;;;;;;5033737;28;20424;-66
2021/03/18 11:37:05;;;;;;;4.63;4.23;;;9.90;93.60;;;;;;5033413;28;20425;-66
2021/03/18 11:39:32;;;;;;;6.90;5.80;;;9.70;92.80;;;;;;5033528;28;20471;-66
2021/03/18 11:41:58;;;;;;;6.40;5.10;;;9.50;95.10;;;;;;5017918;28;20452;-66
2021/03/18 11:44:29;;;;;;;5.40;4.50;;;9.40;93.70;;;;;;5033623;28;20432;-66
2021/03/18 11:46:59;;;;;;;4.93;4.40;;;9.10;94.10;;;;;;5032825;28;20452;-66
2021/03/18 11:49:25;;;;;;;6.13;5.13;;;9.50;92.50;;;;;;5033520;28;20487;-66
2021/03/18 11:51:50;;;;;;;9.37;4.13;;;9.90;93.10;;;;;;5033278;28;20460;-66
2021/03/18 11:54:16;;;;;;;5.67;4.53;;;10.20;92.20;;;;;;5033459;28;20179;-66
2021/03/18 11:56:42;;;;;;;5.17;4.77;;;10.10;90.50;;;;;;5033038;28;20182;-67
2021/03/18 11:59:07;;;;;;;6.13;4.27;;;10.20;90.00;;;;;;5033341;28;20252;-67
2021/03/18 12:01:33;;;;;;;5.17;4.60;;;10.40;90.70;;;;;;5033354;28;20206;-66
2021/03/18 12:03:59;;;;;;;4.60;4.20;;;10.50;88.60;;;;;;5032648;28;20175;-67
2021/03/18 12:06:24;;;;;;;6.40;4.50;;;10.00;88.70;;;;;;5033087;28;20482;-67
2021/03/18 12:08:50;;;;;;;6.13;5.13;;;9.80;90.10;;;;;;5033183;28;20289;-66
2021/03/18 12:11:15;;;;;;;4.73;4.33;;;9.90;90.80;;;;;;5033275;28;20214;-66
2021/03/18 12:13:41;;;;;;;11.00;8.80;;;10.80;90.20;;;;;;5033053;28;20186;-66
2021/03/18 12:16:07;;;;;;;6.33;4.30;;;13.20;84.40;;;;;;5032741;28;20644;-65
2021/03/18 12:18:33;;;;;;;5.33;4.93;;;15.20;70.70;;;;;;5031675;28;20201;-66
2021/03/18 12:20:59;;;;;;;5.80;5.20;;;15.60;64.80;;;;;;5033010;28;20457;-66
2021/03/18 12:23:25;;;;;;;5.63;4.40;;;15.00;63.10;;;;;;5033140;28;20432;-66
2021/03/18 12:25:51;;;;;;;4.90;4.50;;;14.50;63.70;;;;;;5032618;28;20428;-65
2021/03/18 12:28:17;;;;;;;4.90;4.50;;;14.00;62.50;;;;;;5033021;28;20451;-65
2021/03/18 12:30:46;;;;;;;7.37;4.80;;;13.70;64.10;;;;;;5032647;28;20647;-66
2021/03/18 12:33:12;;;;;;;9.83;5.73;;;13.30;64.40;;;;;;5033018;28;20182;-66
2021/03/18 12:35:39;;;;;;;6.27;5.50;;;11.90;75.90;;;;;;5032726;28;20439;-65
2021/03/18 12:38:05;;;;;;;6.67;6.00;;;10.60;88.50;;;;;;5032504;28;20795;-66
2021/03/18 12:40:31;;;;;;;5.43;5.03;;;9.70;93.50;;;;;;5032749;28;21104;-66
2021/03/18 12:42:57;;;;;;;7.70;5.77;;;8.90;98.90;;;;;;5032397;28;20506;-66
2021/03/18 12:45:23;;;;;;;6.13;5.53;;;8.20;99.90;;;;;;5032266;28;20182;-66
2021/03/18 12:47:48;;;;;;;6.87;5.93;;;7.80;99.90;;;;;;5032410;28;20460;-65
2021/03/18 12:50:17;;;;;;;5.50;4.67;;;7.50;99.90;;;;;;5032427;28;20205;-65
2021/03/18 12:52:43;;;;;;;7.37;5.90;;;7.30;99.90;;;;;;5032085;28;20189;-66
2021/03/18 12:55:09;;;;;;;7.80;5.57;;;7.20;99.90;;;;;;5032146;28;20532;-66
2021/03/18 12:57:37;;;;;;;6.13;4.47;;;7.10;99.90;;;;;;5032189;28;20640;-66
2021/03/18 13:00:04;;;;;;;6.13;5.47;;;7.20;99.90;;;;;;5032212;28;20453;-65
2021/03/18 13:02:30;;;;;;;6.17;4.70;;;7.20;99.90;;;;;;5032410;28;20443;-66
2021/03/18 13:04:55;;;;;;;19.60;11.07;;;7.00;99.90;;;;;;5031950;28;20554;-66
2021/03/18 13:07:21;;;;;;;7.10;5.53;;;7.00;99.90;;;;;;5032381;28;20540;-65